Date,TemperatureHighF,TemperatureAvgF,TemperatureLowF,DewpointHighF,DewpointAvgF,DewpointLowF,HumidityHigh,HumidityAvg,HumidityLow,PressureMaxIn,PressureMinIn,WindSpeedMaxMPH,WindSpeedAvgMPH,GustSpeedMaxMPH,PrecipitationSumIn
2013-1-1,43.2,39.2,35.6,30.6,27.7,22.5,73,63,56,29.99,29.87,0,0,4,0.00
2013-1-2,38.2,33.8,29.0,28.9,19.8,12.7,69,56,46,30.21,29.96,3,0,9,0.00
2013-1-3,37.2,30.0,25.3,19.8,16.9,12.8,78,58,44,30.23,30.12,1,0,4,0.00
2013-1-4,42.6,33.5,23.9,21.9,20.0,18.3,83,60,40,30.18,30.08,7,1,16,0.00
2013-1-5,43.3,36.2,27.5,30.6,21.4,17.7,73,55,40,30.34,30.12,2,0,9,0.00
2013-1-6,51.6,42.1,29.1,34.1,28.3,25.0,92,60,39,30.16,29.99,3,0,13,0.00
2013-1-7,45.1,39.7,27.8,30.2,25.8,21.8,79,58,46,30.40,30.11,2,0,14,0.00
2013-1-8,52.0,38.1,26.1,34.2,29.2,21.8,92,72,47,30.39,30.33,1,0,7,0.00
2013-1-9,50.1,39.6,29.8,41.9,34.9,27.2,96,84,45,30.35,30.20,2,0,9,0.01
2013-1-10,52.5,46.7,38.0,31.4,28.8,26.1,65,50,36,30.57,30.34,3,0,13,0.00
2013-1-11,44.6,40.6,34.1,41.8,34.9,27.5,97,81,62,30.47,30.06,0,0,4,0.04
2013-1-12,53.8,45.3,41.3,47.6,43.2,41.0,100,93,79,30.14,30.06,1,0,4,0.00
2013-1-13,56.3,49.0,42.5,56.3,48.8,41.3,100,99,95,30.11,29.93,0,0,4,0.01
2013-1-14,59.2,52.9,40.3,59.2,47.6,36.9,100,83,61,30.27,29.90,7,2,15,0.14
2013-1-15,40.2,38.9,35.9,39.5,38.2,35.6,99,97,90,30.30,30.12,6,2,10,1.03
2013-1-16,40.8,37.6,34.9,40.6,37.5,34.6,100,100,99,30.13,29.82,6,1,11,0.40
2013-1-17,43.1,40.5,37.9,41.1,35.0,30.1,100,82,62,30.10,29.93,5,1,10,0.02
2013-1-18,37.8,33.4,27.2,30.3,19.0,9.9,74,57,36,30.46,30.00,8,2,17,0.00
2013-1-19,52.3,41.0,29.5,30.7,26.4,20.9,78,58,41,30.40,29.92,6,3,14,0.00
2013-1-20,58.1,45.9,34.7,33.1,22.5,7.7,65,42,19,30.04,29.79,10,3,22,0.00
2013-1-21,44.1,36.4,29.8,26.8,18.9,11.0,57,49,38,30.06,29.75,7,2,22,0.00
2013-1-22,29.8,20.8,16.9,12.2,-1.8,-7.0,48,37,27,30.27,29.90,10,5,20,0.00
2013-1-23,26.3,20.2,12.4,12.1,0.6,-3.3,64,43,28,30.33,30.12,7,1,13,0.00
2013-1-24,25.7,21.0,16.4,15.4,8.8,0.1,86,62,34,30.49,30.06,9,2,16,0.02
2013-1-25,23.9,19.8,16.4,14.8,4.3,0.1,78,51,39,30.49,30.10,4,0,11,0.00
2013-1-27,32.2,28.2,27.0,21.3,19.0,17.3,76,68,56,30.49,30.46,0,0,8,0.01
2013-1-28,44.5,35.8,27.9,43.7,32.9,21.3,98,90,74,30.47,30.02,5,1,10,0.13
2013-1-29,66.9,52.6,40.2,52.6,46.7,38.9,100,82,59,30.08,29.93,4,0,11,0.00
2013-1-30,68.8,60.8,53.9,62.4,57.1,50.7,99,88,74,29.93,29.17,9,3,20,1.18
2013-1-31,62.3,43.5,29.5,62.3,27.9,11.2,100,57,32,29.88,29.12,12,6,28,0.90
2013-2-1,32.4,26.1,18.8,24.2,10.6,1.7,85,53,36,30.36,29.77,12,4,23,0.02
2013-2-2,30.9,23.8,14.9,25.9,12.7,2.6,90,64,40,30.37,29.98,3,0,15,0.00
2013-2-3,33.4,29.3,23.2,29.4,24.9,16.7,94,84,54,29.98,29.80,7,0,13,0.00
2013-2-4,34.7,30.2,24.1,22.2,15.5,10.6,65,54,44,30.07,29.86,6,1,14,0.00
2013-2-5,41.3,35.4,29.5,29.1,25.7,21.4,79,68,57,29.90,29.81,0,0,2,0.00
2013-2-6,45.7,37.0,28.8,32.3,26.1,21.3,90,66,46,30.32,29.90,6,1,14,0.00
2013-2-7,40.3,33.5,26.1,30.0,24.7,20.4,86,71,57,30.41,30.16,4,0,11,0.00
2013-2-8,41.5,36.8,32.8,39.3,32.4,21.6,98,85,57,30.16,29.71,11,3,23,0.19
2013-2-9,39.5,28.6,29.3,22.3,0.3,-99.9,64,45,36,30.36,29.89,10,-145,23,0.00
2013-2-10,43.2,34.0,21.4,26.1,17.9,13.5,83,53,30,30.45,30.20,3,0,11,0.00
2013-2-11,51.7,43.7,37.2,51.7,42.3,26.3,100,95,63,30.20,29.67,4,1,11,0.18
2013-2-12,55.0,47.5,40.3,39.1,28.1,24.1,83,48,31,29.95,29.77,8,2,14,0.00
2013-2-13,46.4,38.3,32.1,36.7,30.3,24.5,96,74,56,29.91,29.62,5,1,11,0.25
2013-2-14,47.9,38.2,31.3,34.4,29.1,24.4,97,73,40,29.98,29.74,4,1,10,0.00
2013-2-15,58.6,43.2,31.2,38.3,32.1,27.4,94,70,33,29.99,29.85,8,1,14,0.09
2013-2-16,38.5,35.5,30.6,35.0,29.0,15.4,96,78,49,29.97,29.80,7,3,15,0.00
2013-2-17,31.2,27.5,23.8,16.5,10.3,2.8,63,49,34,30.18,29.80,12,6,26,0.00
2013-2-18,40.8,29.9,19.5,17.6,9.2,4.8,59,43,26,30.35,30.13,6,1,16,0.00
2013-2-19,43.9,38.8,33.5,41.6,30.4,17.3,94,73,51,30.13,29.69,6,2,13,0.09
2013-2-20,38.2,32.9,24.8,23.6,14.3,7.5,57,46,36,30.14,29.81,10,5,22,0.00
2013-2-21,37.9,29.8,23.6,16.7,13.0,7.6,58,49,38,30.29,30.10,8,4,16,0.00
2013-2-22,33.4,31.4,29.5,30.4,23.1,16.0,92,72,55,30.34,30.18,5,0,11,0.03
2013-2-23,44.2,38.3,32.5,43.8,37.6,30.4,100,97,92,30.18,29.77,4,1,8,0.00
2013-2-24,50.7,42.2,32.2,41.8,31.2,17.8,98,69,36,30.08,29.75,10,3,26,0.00
2013-2-25,45.7,36.2,27.6,24.9,21.6,18.2,73,56,39,30.18,30.07,5,1,11,0.00
2013-2-26,43.9,36.3,28.2,43.9,33.1,22.4,100,88,71,30.19,29.56,9,2,17,0.79
2013-2-27,55.7,46.8,39.2,44.5,38.4,32.1,100,76,46,29.66,29.48,9,2,11,0.00
2013-2-28,48.2,42.7,39.5,37.6,29.8,21.9,84,61,37,29.69,29.59,10,2,17,0.00
2013-3-1,43.5,40.5,36.0,30.0,27.4,23.4,67,60,49,29.85,29.69,6,3,15,0.00
2013-3-2,36.6,33.3,29.8,23.5,21.3,19.2,70,61,50,29.85,29.78,6,2,14,0.00
2013-3-3,40.9,33.4,28.4,21.1,18.5,15.4,70,55,38,29.89,29.76,8,3,18,0.00
2013-3-4,42.5,33.9,28.1,18.0,15.8,12.9,60,48,33,30.00,29.88,9,3,18,0.00
2013-3-5,50.4,39.2,29.0,31.2,19.1,11.4,77,47,21,30.04,29.76,3,0,10,0.00
2013-3-6,37.6,35.0,32.8,36.0,33.4,30.6,99,94,78,29.96,29.56,14,7,33,0.68
2013-3-7,47.9,40.7,32.5,32.2,28.2,24.8,83,62,43,30.11,29.95,9,3,20,0.00
2013-3-8,48.9,41.7,35.5,28.7,27.0,24.5,72,57,43,30.22,30.09,12,4,23,0.00
2013-3-9,58.6,44.6,34.4,27.4,24.6,19.1,67,48,23,30.31,30.21,6,1,11,0.00
2013-3-10,61.2,46.1,29.7,34.3,25.0,17.1,89,50,19,30.29,30.17,4,1,16,0.00
2013-3-11,59.9,50.9,42.8,49.5,44.1,34.4,94,78,65,30.20,29.90,5,1,14,0.00
2013-3-12,57.3,53.1,41.6,56.4,45.5,29.9,99,76,53,29.92,29.65,8,4,21,0.94
2013-3-13,49.9,40.9,31.2,32.1,25.2,16.6,88,56,27,30.03,29.86,9,3,23,0.00
2013-3-14,44.9,37.0,31.6,19.5,16.1,12.0,56,43,27,30.10,29.99,11,5,28,0.00
2013-3-15,56.6,42.3,27.8,32.1,23.4,15.6,74,50,27,30.06,29.74,6,1,17,0.00
2013-3-16,60.1,47.5,38.5,50.6,37.3,30.6,83,68,48,29.86,29.59,9,1,16,0.02
2013-3-17,40.6,37.8,31.9,33.8,30.1,25.8,91,74,59,30.23,29.86,5,1,11,0.00
2013-3-18,37.3,35.1,31.8,33.0,27.3,21.3,91,74,53,30.29,30.13,3,0,13,0.02
2013-3-31,51.4,49.5,46.0,49.7,47.5,43.6,94,93,92,29.75,29.71,2,0,10,0.02
2013-4-1,66.6,48.4,38.0,50.3,36.3,21.6,100,67,34,29.94,29.69,9,2,21,0.00
2013-4-2,49.4,41.6,34.6,21.8,14.6,10.2,48,34,22,30.14,29.95,9,3,24,0.00
2013-4-3,51.4,39.8,27.9,19.3,14.9,9.7,67,39,19,30.35,30.14,9,3,23,0.00
2013-4-4,49.2,37.8,25.4,34.4,18.7,11.9,84,49,24,30.38,30.05,3,1,13,0.09
2013-4-5,64.3,49.4,37.9,41.6,31.0,19.3,97,58,22,30.05,29.78,7,2,20,0.12
2013-4-6,55.6,46.8,36.2,31.5,20.9,14.8,60,37,21,30.29,30.00,7,2,15,0.00
2013-4-7,69.1,53.7,38.5,41.8,35.4,28.7,79,53,31,30.24,29.94,7,2,18,0.00
2013-4-8,79.8,65.8,49.1,49.7,44.0,40.7,79,48,27,30.03,29.89,4,1,13,0.00
2013-4-9,85.1,73.2,58.9,58.4,51.2,47.0,78,48,28,30.03,29.88,5,-33,15,0.00
2013-4-10,90.1,77.5,62.4,57.1,52.9,50.1,73,45,26,29.93,29.73,6,1,16,0.00
2013-4-11,85.5,72.0,56.5,60.3,55.7,45.9,87,60,31,29.83,29.67,8,1,18,0.00
2013-4-12,74.2,61.4,52.5,67.8,58.1,50.5,100,89,74,29.76,29.52,7,2,17,0.82
2013-4-13,68.9,56.6,43.1,52.1,40.2,35.0,89,57,30,29.90,29.71,7,1,20,0.00
2013-4-14,67.3,55.7,41.8,43.7,39.1,34.5,87,57,31,30.10,29.91,7,1,15,0.00
2013-4-15,62.6,58.2,53.9,51.5,47.1,43.2,80,67,60,30.25,30.08,5,0,13,0.00
2013-4-16,74.6,63.7,55.3,58.9,54.3,47.2,86,72,54,30.27,30.07,6,1,16,0.00
2013-4-17,78.1,66.4,57.5,63.4,58.4,54.9,98,77,53,30.19,30.07,8,1,17,0.06
2013-4-18,77.4,66.1,59.2,64.5,58.9,55.1,100,79,55,30.18,29.96,7,1,18,0.12
2013-4-19,77.2,67.3,52.5,67.2,60.8,49.8,95,81,62,29.96,29.55,9,2,20,1.01
2013-4-20,60.2,54.2,48.5,49.9,37.1,24.4,91,58,27,30.29,29.75,6,2,17,2.07
2013-4-21,54.2,46.4,38.8,30.7,25.1,19.3,65,44,27,30.56,30.30,9,2,18,0.00
2013-4-22,55.9,46.8,34.9,41.6,35.2,30.7,90,65,48,30.54,30.37,9,2,20,0.00
2013-4-23,59.9,51.4,47.0,45.0,40.5,36.2,81,67,54,30.37,30.09,6,3,11,0.00
2013-4-24,77.4,61.0,47.0,55.6,47.9,41.5,87,65,40,30.09,29.76,7,2,25,0.00
2013-4-25,63.9,56.4,49.8,48.6,35.6,24.8,70,47,24,30.28,29.94,7,2,16,0.00
2013-4-26,65.6,53.9,45.1,40.5,36.4,29.6,77,56,27,30.42,30.27,5,1,11,0.00
2013-4-27,70.9,56.6,45.7,40.6,38.0,33.0,75,54,26,30.38,30.25,3,-306,10,0.00
2013-4-28,65.8,56.0,49.8,52.3,43.6,36.8,83,65,35,30.25,30.11,4,0,13,0.01
2013-5-5,53.5,52.7,51.4,46.2,45.9,45.6,81,77,75,30.15,30.13,1,0,7,0.00
2013-5-6,61.6,55.3,50.2,57.4,51.4,44.4,95,87,79,30.15,30.02,7,2,16,0.01
2013-5-7,62.7,59.7,58.0,62.7,59.4,56.9,100,99,95,30.02,29.89,7,3,18,0.80
2013-5-8,59.6,59.1,58.6,59.6,59.1,58.6,100,100,100,29.94,29.94,0,0,8,0.85
2013-5-12,50.5,49.3,48.2,33.4,32.6,31.2,55,52,50,30.01,29.99,0,0,2,0.00
2013-5-13,61.5,50.4,39.8,38.4,29.7,21.2,86,49,24,30.15,30.00,6,2,29,0.00
2013-5-14,64.8,51.2,35.8,39.9,34.2,27.9,92,56,27,30.19,30.02,4,0,15,0.00
2013-5-15,85.3,66.5,52.2,64.1,53.1,40.1,82,63,44,30.02,29.65,4,0,14,0.00
2013-5-16,82.6,72.8,63.1,66.0,59.4,55.4,86,64,40,29.89,29.72,5,1,18,0.01
2013-5-17,83.0,71.1,59.3,60.1,54.4,48.5,92,58,34,30.10,29.89,3,1,11,0.00
2013-5-18,66.3,62.4,59.0,60.4,56.6,51.5,96,82,59,30.22,30.10,3,0,9,0.08
2013-5-19,74.6,65.5,59.0,67.2,63.0,57.9,100,92,72,30.18,30.05,2,0,10,0.00
2013-5-20,80.3,71.3,65.0,70.4,66.3,62.8,97,85,66,30.09,29.95,3,0,10,0.00
2013-5-21,82.2,72.9,66.9,71.1,68.0,65.1,98,85,66,29.97,29.85,3,1,10,0.00
2013-5-22,86.1,76.8,68.9,72.9,69.4,64.0,99,79,58,29.90,29.80,5,1,14,0.02
2013-5-23,81.8,72.5,64.3,68.7,66.7,62.3,95,83,58,29.88,29.72,5,1,20,1.59
2013-5-24,64.3,56.9,48.5,62.7,48.2,33.0,98,74,51,30.13,29.71,7,3,21,0.01
2013-5-25,66.3,54.1,43.8,40.5,34.8,31.1,67,50,28,30.17,30.06,7,3,21,0.00
2013-5-26,72.7,59.7,48.2,44.6,36.6,32.3,74,44,24,30.20,30.09,6,2,21,0.00
2013-5-27,69.6,59.9,47.0,49.8,44.8,37.3,85,60,32,30.26,30.16,2,0,9,0.00
2013-5-28,83.4,66.8,57.2,69.6,59.7,49.4,97,79,55,30.17,30.03,4,0,14,1.18
2013-5-29,87.4,74.9,64.2,73.4,66.4,63.2,100,78,47,30.10,30.04,4,1,11,0.00
2013-5-30,89.7,77.8,65.8,69.4,66.1,61.8,93,69,44,30.15,30.07,4,1,10,0.00
2013-5-31,89.7,77.8,64.8,69.1,64.6,61.5,95,66,42,30.13,29.99,41,1,186,0.00
2013-6-1,89.9,79.3,68.8,71.4,66.1,63.1,85,65,47,30.01,29.89,4,1,13,0.00
2013-6-2,84.0,76.7,69.9,72.3,67.3,62.8,96,74,59,29.89,29.81,4,1,13,0.39
2013-6-3,73.9,69.8,68.3,68.7,65.7,56.3,99,88,62,29.92,29.81,2,0,11,0.77
2013-6-4,75.1,66.2,57.5,56.9,48.8,40.8,88,55,32,30.10,29.92,7,2,15,0.00
2013-6-5,78.6,66.5,53.9,59.6,54.5,48.0,97,68,40,30.15,30.02,4,1,10,0.00
2013-6-6,72.7,67.1,62.1,64.7,60.1,53.7,98,79,68,30.06,29.83,4,1,11,0.55
2013-6-7,70.3,68.1,65.3,70.3,68.0,64.7,100,100,98,29.83,29.56,7,1,14,2.09
2013-6-8,79.4,70.0,64.0,66.0,62.4,57.3,100,79,48,30.06,29.67,4,1,11,0.00
2013-6-9,80.9,72.2,63.7,70.7,65.3,60.1,93,79,61,30.16,30.06,4,1,10,0.00
2013-6-10,78.1,72.5,68.8,76.1,70.9,66.4,100,95,83,30.07,29.76,4,0,13,3.06
2013-6-11,82.4,73.2,66.3,71.2,65.7,62.0,100,80,55,29.82,29.75,5,1,14,0.00
2013-6-12,87.8,76.9,66.1,70.2,65.8,61.5,92,71,44,29.84,29.75,6,1,16,0.00
2013-6-13,86.3,74.4,68.3,75.3,67.6,55.7,97,80,53,29.77,29.43,5,1,21,0.16
2013-6-14,77.9,69.3,61.3,58.9,54.3,48.2,83,60,40,29.95,29.56,11,3,21,0.00
2013-6-15,82.2,71.3,61.2,60.5,56.9,51.3,83,62,37,30.05,29.95,5,1,13,0.00
2013-6-16,83.8,73.6,64.0,69.1,64.2,58.7,91,73,52,30.00,29.86,4,0,15,0.00
2013-6-17,85.5,77.1,69.1,72.1,68.2,65.0,93,75,56,29.93,29.84,2,0,9,0.00
2013-6-18,76.3,71.1,65.2,70.6,67.9,63.7,97,90,78,29.88,29.77,5,0,9,0.40
2013-6-19,74.7,68.4,63.5,66.1,63.5,60.0,98,85,67,30.14,29.86,5,1,10,0.00
2013-6-20,78.1,69.3,60.5,64.6,59.9,53.6,98,74,48,30.25,30.14,4,1,9,0.00
2013-6-21,81.4,69.5,56.9,62.7,56.1,50.5,94,65,36,30.28,30.21,3,0,11,0.00
2013-6-22,85.1,73.6,62.0,68.2,63.9,59.6,96,74,50,30.23,30.11,4,1,13,0.00
2013-6-23,83.8,74.8,69.3,74.5,69.8,65.7,100,85,64,30.16,30.05,4,0,8,1.58
2013-6-24,88.8,76.3,69.9,76.2,70.8,66.7,98,84,52,30.10,30.01,3,0,13,0.03
2013-6-25,90.1,79.0,68.3,75.9,69.7,63.1,100,75,49,30.01,29.87,7,1,18,0.14
2013-6-26,87.8,76.5,67.9,77.2,69.9,66.1,98,81,59,29.90,29.78,3,0,8,0.01
2013-6-27,80.1,75.0,72.3,73.3,70.2,68.2,94,85,77,29.81,29.60,4,0,10,0.00
2013-6-28,87.6,74.5,69.1,73.9,70.1,67.6,100,87,56,29.61,29.47,5,0,24,1.72
2013-6-29,85.7,74.9,65.6,72.0,66.5,60.2,100,78,46,29.67,29.51,3,1,9,0.18
2013-6-30,84.7,77.3,71.1,76.3,73.0,68.7,97,87,69,29.83,29.67,3,0,9,0.04
2013-7-1,82.2,76.7,71.3,76.8,72.8,68.2,98,88,70,29.95,29.82,4,1,11,0.03
2013-7-2,81.1,75.0,29.1,74.7,71.8,28.4,97,90,77,30.16,29.96,4,1,11,0.01
2013-7-3,82.4,68.0,29.1,79.2,66.4,28.4,100,95,80,30.21,30.14,2,0,11,0.02
2013-7-4,76.5,74.8,74.7,74.1,72.5,72.2,96,92,92,30.24,30.19,2,0,7,0.00
2013-7-6,88.2,82.6,78.3,72.6,70.7,69.8,76,68,58,30.10,30.05,2,0,13,0.08
2013-7-7,88.8,78.7,70.8,75.6,71.8,67.2,98,81,60,30.10,29.97,5,1,13,0.30
2013-7-8,83.2,75.2,70.4,75.8,70.6,67.5,100,87,60,30.10,30.02,2,0,7,0.38
2013-7-9,83.4,76.4,70.4,76.7,71.9,68.2,95,86,72,30.09,29.98,2,-81,13,0.02
2013-7-10,87.4,78.6,73.0,77.3,74.2,71.0,95,87,63,29.99,29.83,4,0,14,0.50
2013-7-11,83.6,76.4,72.1,74.5,71.4,67.4,99,86,61,29.90,29.82,6,1,13,0.00
2013-7-12,76.3,69.9,67.1,72.8,68.3,65.6,100,95,79,30.01,29.87,8,2,17,2.05
2013-7-13,83.6,75.2,69.3,74.5,70.8,68.4,99,87,69,30.25,30.01,4,0,9,0.00
2013-7-14,88.0,79.6,73.5,76.3,72.6,69.0,99,81,58,30.31,30.25,4,1,9,0.00
2013-7-15,91.8,80.9,71.5,75.6,72.0,69.4,98,77,50,30.28,30.17,6,1,10,0.00
2013-7-16,92.1,83.0,76.7,75.0,71.5,67.2,88,70,46,30.22,30.14,7,2,14,0.00
2013-7-17,92.7,82.7,74.6,74.6,71.9,68.0,90,72,48,30.19,30.07,4,0,8,0.00
2013-7-18,94.0,84.0,75.4,78.8,75.3,72.4,94,76,53,30.09,29.97,3,1,9,0.00
2013-7-19,94.0,85.0,77.2,78.6,76.0,73.5,92,76,54,29.99,29.85,4,1,11,0.00
2013-8-2,81.1,76.3,71.1,66.2,65.6,64.4,83,70,57,29.93,29.89,1,0,9,0.00
2013-8-3,78.8,71.8,66.9,70.9,66.1,62.7,97,83,61,29.95,29.89,7,1,13,0.07
2013-8-4,80.1,71.1,63.4,66.2,59.8,52.3,96,71,41,30.01,29.89,8,2,20,0.01
2013-8-5,80.1,68.2,58.3,60.5,56.5,49.0,91,69,39,30.09,29.99,6,1,9,0.00
2013-8-6,71.6,68.8,67.1,68.0,63.5,59.6,96,84,77,30.06,29.98,2,-18,6,0.00
2013-8-7,82.2,74.7,70.1,73.0,69.4,66.7,97,84,71,30.05,29.97,6,1,11,0.00
2013-8-8,84.3,77.7,75.8,76.7,72.1,-99.9,96,84,69,30.01,29.95,5,1,11,0.08
2013-8-9,88.8,81.3,75.3,77.5,73.9,70.0,97,80,60,29.95,29.83,6,1,15,0.00
2013-8-10,83.6,78.6,71.8,70.0,66.3,58.6,79,67,46,30.06,29.91,3,1,10,0.00
2013-8-11,82.4,75.8,71.8,71.3,66.6,63.9,86,74,54,30.09,29.98,3,0,9,0.00
2013-8-12,87.2,78.0,73.0,74.3,68.3,61.5,86,74,43,30.00,29.88,7,1,13,0.00
2013-8-13,84.0,76.6,70.8,74.2,70.0,66.8,96,81,60,29.88,29.71,4,-160,11,0.41
2013-8-14,73.3,69.6,60.4,69.0,59.5,48.7,94,73,48,30.08,29.79,7,2,21,0.01
2013-8-15,76.3,64.7,55.3,56.2,52.4,46.2,90,67,36,30.17,30.07,6,1,10,0.00
2013-8-16,76.8,65.7,55.4,66.5,55.6,52.3,97,72,45,30.18,30.12,3,0,7,0.00
2013-8-17,72.0,61.0,56.9,62.4,56.7,54.3,96,86,61,30.24,30.18,6,0,10,0.00
2013-8-18,71.1,69.4,66.0,66.2,63.0,58.3,96,81,72,30.21,30.15,6,0,11,0.05
2013-8-19,73.2,68.1,61.3,67.2,64.0,58.7,98,87,79,30.16,30.06,2,0,8,0.00
2013-8-20,85.1,75.4,69.6,72.1,67.2,63.9,94,77,51,30.15,30.07,4,0,9,0.00
2013-8-21,86.1,77.5,72.1,74.2,69.9,68.0,89,78,57,30.17,30.05,3,0,11,0.04
2013-8-22,86.5,78.1,71.1,70.7,68.8,62.2,98,75,51,30.07,29.91,4,1,15,0.00
2013-8-23,75.3,71.5,61.8,71.2,66.1,58.8,97,83,70,30.10,29.91,7,1,14,0.03
2013-8-24,79.9,68.4,59.6,69.9,59.8,55.8,97,76,45,30.32,30.10,7,-10,11,0.00
2013-8-25,80.1,69.2,60.1,65.5,58.9,55.1,97,72,46,30.39,30.25,4,1,11,0.00
2013-8-26,85.1,73.0,63.5,66.0,60.8,56.7,82,68,43,30.27,29.99,4,1,14,0.00
2013-8-27,87.8,79.1,73.3,71.4,67.8,64.9,76,69,53,29.99,29.85,6,1,13,0.00
2013-8-28,78.8,76.9,74.7,75.0,71.8,66.4,96,85,74,29.89,29.80,1,0,9,0.13
2013-8-29,82.2,75.7,71.5,73.5,70.6,67.6,99,85,64,30.00,29.80,6,2,13,0.00
2013-8-30,84.3,77.2,73.3,71.2,69.3,68.5,88,77,61,30.02,29.87,4,1,13,0.00
2013-8-31,87.8,79.5,74.9,73.9,71.2,68.1,83,76,61,29.88,29.77,4,1,11,0.00
2013-9-1,88.6,79.7,74.9,73.9,70.1,68.3,87,73,54,29.82,29.73,2,0,8,0.00
2013-9-2,87.0,78.0,70.3,74.5,71.0,67.5,98,80,57,29.78,29.70,4,0,8,0.11
2013-9-3,82.2,76.6,69.4,72.3,62.9,55.4,91,65,41,29.93,29.70,5,2,17,0.00
2013-9-4,79.8,68.8,57.5,64.9,55.7,48.2,91,66,34,30.06,29.93,6,1,11,0.00
2013-9-5,81.6,70.6,59.2,63.0,58.3,49.2,96,68,45,30.10,29.98,8,-32,20,0.00
2013-9-6,74.6,69.5,58.9,52.7,49.0,43.0,79,49,34,30.23,30.10,5,-442,13,0.00
2013-9-7,77.9,65.7,53.3,65.2,57.4,50.4,96,76,54,30.12,29.91,4,1,13,0.00
2013-9-8,85.7,74.4,66.6,65.8,63.0,61.6,84,69,48,30.02,29.85,7,1,13,0.00
2013-9-9,77.6,73.6,65.5,67.7,62.6,52.1,86,69,60,30.18,30.02,4,1,9,0.00
2013-9-10,88.2,78.9,71.8,73.8,71.1,67.7,93,78,55,30.16,30.06,3,1,10,0.00
2013-9-11,90.7,82.6,78.1,75.5,72.0,67.8,84,71,48,30.12,29.97,3,-68,11,0.00
2013-9-12,89.0,79.1,70.3,74.1,71.1,68.7,95,77,56,29.97,29.72,6,-441,13,0.43
2013-9-13,75.1,70.4,63.9,68.8,59.8,48.1,95,72,40,29.92,29.67,7,2,16,0.00
2013-9-14,67.4,60.4,51.9,50.2,46.9,42.6,84,62,44,30.15,29.92,7,2,14,0.00
2013-9-15,73.7,60.4,46.7,57.7,51.2,44.5,97,74,48,30.22,30.07,2,0,8,0.00
2013-9-16,70.9,63.9,59.9,62.2,57.2,54.7,94,80,60,30.20,30.01,5,-79,13,0.00
2013-9-17,66.3,59.9,49.2,54.7,48.2,37.9,83,67,36,30.41,30.21,7,-427,10,0.00
2013-9-18,68.9,55.7,44.5,53.0,45.9,41.7,97,72,39,30.33,30.17,1,0,7,0.00
2013-9-19,74.6,62.0,49.9,64.0,53.5,47.4,96,76,53,30.18,30.06,1,0,8,0.00
2013-9-20,77.9,66.0,54.2,62.1,57.8,51.9,97,77,55,30.07,29.94,1,-29,10,0.00
2013-9-21,74.2,66.6,60.9,65.6,61.8,57.3,95,85,66,29.95,29.66,5,-76,15,0.41
2013-9-22,69.9,64.0,58.0,65.6,55.6,47.4,100,76,53,29.92,29.70,7,-155,13,0.00
2013-9-23,63.4,57.2,49.9,48.5,46.0,43.1,86,67,51,30.07,29.92,7,2,14,0.00
2013-9-24,69.3,56.1,45.1,51.0,47.1,43.2,96,75,45,30.10,29.93,6,1,11,0.00
2013-9-25,70.6,57.9,48.0,55.7,48.9,40.5,96,75,38,29.97,29.86,6,-10,9,0.00
2013-9-26,72.3,60.9,53.9,61.5,53.0,49.9,96,77,51,30.05,29.90,4,1,10,0.00
2013-9-27,70.8,60.7,52.2,62.2,55.6,49.9,99,84,63,30.22,30.05,4,0,9,0.00
2013-9-28,66.6,61.5,58.0,55.9,54.5,52.3,86,78,62,30.28,30.20,5,1,14,0.00
2013-9-29,69.9,58.9,48.5,59.9,53.1,46.9,99,82,60,30.20,30.04,4,0,8,0.00
2013-9-30,73.0,60.1,49.6,59.2,53.0,47.9,98,79,54,30.08,29.96,1,0,6,0.00
2013-10-1,78.1,66.8,60.1,62.7,57.7,54.2,91,74,49,30.06,29.95,3,0,9,0.00
2013-10-2,81.6,68.8,56.7,65.2,59.7,55.3,99,76,45,30.07,29.98,3,0,11,0.00
2013-10-3,79.8,72.9,68.1,67.5,63.3,59.7,85,72,58,30.10,30.01,4,0,7,0.00
2013-10-4,82.6,73.6,68.1,68.6,64.7,62.8,98,75,53,30.07,29.98,4,0,8,0.00
2013-10-5,84.9,76.2,71.6,69.2,66.3,63.6,83,72,49,30.07,29.97,3,-59,8,0.00
2013-10-6,84.7,74.8,67.6,69.8,65.3,62.9,90,74,50,30.00,29.89,4,-3,14,0.00
2013-10-7,76.7,69.3,56.0,65.3,61.7,46.5,96,78,66,30.03,29.77,4,0,14,0.31
2013-10-8,65.0,57.1,49.5,49.7,47.4,45.1,89,71,51,30.26,30.03,8,2,16,0.00
2013-10-9,60.1,56.7,52.2,51.6,50.0,47.0,89,79,70,30.30,30.18,9,4,17,0.00
2013-10-10,59.6,56.5,52.8,56.5,54.1,44.8,100,92,74,30.18,29.96,8,4,11,0.93
2013-10-11,61.5,58.0,55.7,61.5,58.0,55.7,100,100,100,29.96,29.91,6,4,10,0.01
2013-10-12,65.8,61.8,60.1,62.7,60.6,58.3,100,96,82,30.13,29.95,8,4,15,0.04
2013-10-13,62.1,60.3,58.4,61.5,59.3,55.5,98,96,89,30.30,30.13,7,-675,14,0.00
2013-10-14,66.1,60.9,54.1,56.2,55.4,48.5,92,83,66,30.32,30.20,5,1,11,0.00
2013-10-15,68.3,57.9,50.1,57.2,50.9,43.7,99,80,42,30.23,30.07,5,-92,10,0.00
2013-10-16,70.4,63.3,58.1,62.9,57.9,52.6,92,83,75,30.07,29.89,2,-401,8,0.00
2013-10-17,74.2,67.3,63.1,65.6,62.3,56.5,99,84,70,29.89,29.71,4,1,13,0.00
2013-10-18,63.5,57.6,48.0,56.3,46.4,40.8,88,68,47,30.00,29.80,7,2,16,0.00
2013-10-19,64.3,55.2,45.4,58.4,51.3,43.2,98,87,67,29.99,29.77,4,0,15,0.00
2013-10-20,60.7,53.6,43.8,58.4,41.6,34.4,92,66,38,30.09,29.84,5,1,15,0.00
2013-10-21,64.3,51.1,39.1,52.2,41.7,36.8,97,73,38,30.14,29.94,4,1,11,0.00
2013-10-22,62.6,53.5,45.8,53.6,46.1,37.7,97,77,60,29.94,29.80,6,1,14,0.00
2013-10-23,56.2,49.5,44.2,44.5,38.6,32.3,92,67,42,29.89,29.64,4,1,14,0.03
2013-10-24,51.0,44.0,38.2,36.7,31.1,25.1,79,62,41,30.12,29.89,6,2,18,0.00
2013-10-25,52.9,43.6,36.2,34.0,31.2,29.1,79,63,45,30.31,30.12,6,2,16,0.00
2013-10-26,54.5,43.5,30.1,34.1,29.9,27.0,93,62,38,30.29,29.92,5,1,17,0.00
2013-10-27,58.7,48.0,38.3,41.0,36.0,32.4,92,65,42,30.13,29.93,6,1,17,0.00
2013-10-28,61.6,47.4,36.8,46.2,38.9,34.1,97,75,44,30.26,30.12,6,0,10,0.00
2013-10-29,61.0,48.3,38.5,46.0,39.5,-99.9,96,76,49,30.36,30.25,5,-11,7,0.00
2013-10-30,61.6,54.2,48.0,56.1,51.1,44.6,98,89,80,30.30,30.13,2,0,10,0.06
2013-10-31,67.4,60.3,52.9,60.3,57.0,51.7,100,90,77,30.16,29.75,4,1,14,0.01
2013-11-1,70.8,65.9,58.6,64.3,60.2,56.0,96,82,63,29.75,29.57,5,1,17,0.17
2013-11-2,67.6,57.6,50.2,56.7,46.1,37.1,95,68,45,29.86,29.62,7,1,13,0.00
2013-11-3,55.0,48.0,39.8,41.9,33.2,20.4,85,59,27,30.43,29.86,8,2,18,0.00
2013-11-4,45.2,38.7,31.2,27.5,23.8,20.2,73,56,38,30.62,30.43,8,2,14,0.00
2013-11-5,55.7,46.4,35.3,47.2,38.8,27.4,85,75,64,30.59,30.43,4,0,8,0.00
2013-11-6,67.4,57.4,49.5,53.2,50.0,45.9,92,77,57,30.43,30.03,4,1,14,0.00
2013-11-7,60.4,53.5,43.8,57.8,46.1,22.8,98,78,42,30.06,29.85,7,2,17,0.03
2013-11-8,50.4,41.3,32.9,29.5,26.1,21.9,80,57,34,30.30,30.06,8,2,21,0.00
2013-11-9,53.3,42.1,28.4,33.8,28.0,24.7,92,60,37,30.34,30.01,5,1,14,0.00
2013-11-10,62.7,49.2,40.3,37.3,29.7,26.1,67,49,27,30.20,29.92,8,2,22,0.00
2013-11-11,55.6,47.6,35.2,32.5,29.6,26.8,79,51,36,30.29,29.97,5,2,14,0.00
2013-11-12,50.2,41.0,31.0,37.5,22.9,13.1,64,49,38,30.38,29.94,10,3,21,0.00
2013-11-13,40.8,34.2,28.8,21.0,18.8,16.1,66,54,41,30.46,30.38,9,2,21,0.00
2013-11-14,54.7,38.1,25.4,24.1,19.8,13.7,78,52,21,30.37,30.20,3,0,9,0.00
2013-11-15,59.3,43.1,28.5,40.5,28.2,22.5,89,59,27,30.26,30.16,3,0,8,0.12
2013-11-16,51.6,48.7,44.3,51.1,47.5,40.2,99,96,81,30.29,30.20,2,0,7,0.48
2013-11-17,61.5,56.5,50.8,58.7,55.2,50.5,100,96,86,30.20,29.72,4,1,14,0.00
2013-11-18,66.8,58.9,49.9,61.5,39.4,23.7,98,56,21,29.92,29.66,8,4,23,0.26
2013-11-19,49.8,43.9,37.9,27.8,26.2,24.8,61,50,40,30.34,29.91,8,4,24,0.00
2013-11-20,46.0,37.5,31.9,27.6,24.7,22.3,79,61,42,30.53,30.34,8,2,14,0.00
2013-11-21,49.9,41.0,29.8,39.0,33.4,25.2,92,75,60,30.54,30.37,5,0,9,0.00
2013-11-22,62.7,53.7,44.8,53.5,47.3,39.1,87,79,66,30.37,29.97,5,0,11,0.00
2013-11-23,57.6,44.3,31.5,49.0,26.8,10.6,73,51,34,30.17,29.99,9,5,23,0.00
2013-11-24,31.5,26.6,23.0,11.0,3.9,-99.9,51,39,29,30.50,30.17,9,-6,21,0.00
2013-11-25,35.2,28.2,19.2,13.9,9.0,5.8,67,45,29,30.56,30.31,4,2,13,0.00
2013-11-26,43.6,36.0,33.5,43.6,28.4,11.6,100,77,38,30.31,29.58,8,1,16,2.11
2013-11-27,38.9,36.3,28.8,38.5,32.3,13.7,100,87,53,30.02,29.48,11,5,23,0.59
2013-11-28,36.5,30.3,25.4,24.0,15.6,11.8,79,55,41,30.44,30.02,8,3,18,0.00
2013-11-29,40.2,32.1,24.2,24.1,20.5,18.6,85,64,43,30.69,30.43,9,2,16,0.00
2013-11-30,37.0,30.4,22.5,25.7,20.4,17.5,85,67,49,30.69,30.34,4,0,10,0.00
2013-12-1,47.9,36.6,24.1,31.9,26.9,20.8,92,69,49,30.34,29.98,4,0,8,0.00
2013-12-2,48.3,43.0,39.5,39.6,36.2,31.3,83,77,70,29.98,29.84,2,0,8,0.00
2013-12-3,55.4,45.0,38.6,39.9,36.7,33.6,89,74,53,29.95,29.84,4,0,8,0.00
2013-12-4,55.9,47.4,37.6,49.5,43.4,35.5,96,86,74,30.05,29.95,2,0,4,0.00
2013-12-5,69.1,59.6,52.0,61.2,56.2,49.5,99,89,70,30.02,29.89,6,2,14,0.01
2013-12-6,63.5,50.5,38.5,63.5,49.9,38.0,100,98,95,30.13,29.84,7,3,17,0.95
2013-12-7,42.5,36.9,31.0,38.0,30.6,21.0,99,79,60,30.51,30.11,7,3,15,0.21
2013-12-8,31.8,29.5,28.1,31.3,24.6,19.3,98,83,66,30.57,30.27,7,2,13,1.00
2013-12-9,33.8,32.7,31.8,33.8,32.5,31.3,100,99,98,30.28,30.00,1,0,4,0.64
2013-12-10,35.0,31.9,25.6,35.0,30.7,22.8,100,96,75,30.20,29.97,7,1,16,0.31
2013-12-11,38.9,28.6,20.0,25.2,21.2,17.8,95,75,46,30.38,30.20,4,0,9,0.00
2013-12-12,29.8,26.3,20.8,23.3,14.7,9.9,89,62,44,30.42,30.22,6,2,17,0.00
2013-12-13,41.1,31.1,20.6,24.9,17.4,13.0,82,58,35,30.28,30.19,5,1,14,0.00
2013-12-14,38.6,34.8,30.7,35.8,30.8,24.5,98,85,77,30.29,29.67,6,1,11,0.49
2013-12-15,45.7,36.7,28.8,40.3,30.3,21.7,100,79,56,29.91,29.60,8,2,18,0.00
2013-12-16,36.8,33.8,29.7,27.0,24.4,21.5,83,69,58,30.16,29.91,5,1,10,0.00
2013-12-17,39.5,35.6,32.9,34.2,30.2,25.5,93,81,74,30.13,29.90,3,0,7,0.02
2013-12-18,39.9,33.3,26.6,32.6,25.0,20.3,95,73,47,30.19,29.96,6,1,13,0.00
2013-12-19,58.6,41.3,25.7,31.6,27.3,21.9,91,62,31,30.18,30.03,5,1,11,0.00
2013-12-20,58.6,50.9,39.8,42.8,34.2,28.2,68,53,38,30.07,29.95,4,1,13,0.00
2013-12-21,70.1,61.1,51.9,60.9,51.0,41.6,85,70,56,29.98,29.85,8,3,17,0.00
2013-12-22,70.1,64.0,60.7,63.1,60.7,58.3,98,89,70,29.97,29.78,7,3,21,0.21
2013-12-23,62.3,54.2,38.6,62.3,50.7,27.5,100,89,64,30.20,29.88,9,2,18,0.82
2013-12-24,39.6,33.6,23.3,27.4,18.5,5.6,66,54,37,30.45,30.17,9,4,20,0.00
2013-12-25,31.0,24.9,19.9,16.9,10.7,7.8,71,55,41,30.55,30.36,6,2,11,0.00
2013-12-26,43.2,31.1,22.4,24.0,20.1,16.5,89,65,40,30.36,30.19,5,1,10,0.00
2013-12-27,47.6,34.7,25.6,25.4,21.6,19.3,82,61,33,30.40,30.28,4,1,10,0.00
2013-12-28,56.0,40.0,27.0,29.6,25.4,22.0,86,59,30,30.30,30.07,4,1,10,0.00
2013-12-29,46.7,43.7,38.9,46.7,39.9,28.5,100,88,54,30.07,29.50,6,1,16,1.54
2013-12-30,43.8,37.5,33.1,41.3,31.2,21.1,99,79,61,30.15,29.78,7,2,18,0.00
2013-12-31,45.4,35.1,28.8,29.6,20.8,15.8,74,57,39,30.29,30.07,11,3,23,0.00
2014-1-1,45.4,34.7,25.8,30.4,24.2,16.3,82,66,46,30.39,30.09,5,1,11,0.00
2014-1-2,38.0,32.8,29.4,34.5,29.9,26.1,96,89,81,30.09,29.59,7,1,11,0.32